Terminal Aerodrome Forecast
Issued by NWS Greer, SC

Home | Current Version | Previous Version | Text Only | Print | Product List | Glossary On
Versions: 1 2 3 4 5 6 7 8 9 10 11 12 13 14 15 16 17 18 19 20 21 22 23
000
FTUS42 KGSP 231720
TAFGSP
TAF
KGSP 231720Z 2318/2418 21008KT P6SM BKN045
     FM232000 20005KT P6SM SCT050
     FM240000 20004KT P6SM SCT080 BKN150
     FM241000 21004KT 5SM BR BKN025
     FM241300 20005KT 3SM BR BKN009
     FM241500 21010KT P6SM BKN013 PROB30 2416/2418 4SM -SHRA OVC008=

USA.gov is the U.S. government's official web portal to all federal, state and local government web resources and services.